Hillsboro, Ohio
Current Conditions -  °F | °C
As of 12:54 PM on Thursday 23 Oct 2014 (Local Time) from KILN Reporting Station
Few Clouds Few Clouds  
Wind Chill: 54°   Ceiling: Unl
Heat Index: 54°   Visibility: 10mi
Dew Point: 39°   Wind: 0mph
Humidity: 57%   Direction: NA
Pressure: 30.22"   Gusts: NA
Location:  39.2°N, 83.61°W
Report Text: KILN 231654Z AUTO 00000KT 10SM FEW029 12/04 A3022 RMK AO2 SLP243 T01220039
Loading
Personal Weather Stations






























Interactive Weather Map
Tropical Storm Tracking
New forecast layout! Learn more

10-Day Weather Forecast

Advertisements
Track Severe Weather on mobile